Burns Pinion Ridge Reserve, California Weather observations

Data are for 10 minute period ending at time listed.
 Day   Time   Solar   Ave.   Ave.  Ave.  Vector  Max.   Baro.   Total    
  of    of     Rad.   Air    Rel.  Wind   Wind   Wind  Press.  Precip.   
Year   Day            Temp.  Hum.  Speed  Dir.   Gust                    
2016   (PST)  Kw/m2    F      %     mph   deg.    mph    mb.     in.     
-------------------------------------------------------------------------
 146    0:00   0.00   45.3    78    2.1   345     3.3   873.8    0.00 
 146    0:10   0.00   45.4    78    2.0   347     3.2   873.8    0.00 
 146    0:20   0.00   44.5    78    1.0   328     2.1   873.7    0.00 
 146    0:30   0.00   43.1    79    1.2   312     1.9   873.6    0.00 
 146    0:40   0.00   42.7    80    1.0     6     2.3   873.5    0.00 
 146    0:50   0.00   43.0    77    1.8   359     2.7   873.6    0.00 
 146    1:00   0.00   42.8    74    0.4   334     1.5   873.5    0.00 
 146    1:10   0.00   42.5    73    0.6    78     2.9   873.5    0.00 
 146    1:20   0.00   43.3    70    2.1   109     3.5   873.4    0.00 
 146    1:30   0.00   48.3    58    2.5   115     3.8   873.3    0.00 
 146    1:40   0.00   49.0    57    2.3   111     3.8   873.3    0.00 
 146    1:50   0.00   48.5    60    2.5   106     4.6   873.3    0.00 
 146    2:00   0.00   48.7    60    3.9   116     6.1   873.3    0.00 
 146    2:10   100.00  99999.0   99999  99999.0   99999   99999.0   99999.0   99999.00 
 146    2:20   0.00   50.1    48    3.5   100     6.1   873.3    0.00 
 146    2:30   0.00   50.0    46    2.5    77     4.3   873.3    0.00 
 146    2:40   0.00   47.7    52    0.8    32     2.1   873.4    0.00 
 146    2:50   0.00   44.9    56    0.2    36     1.4   873.4    0.00 
 146    3:00   0.00   42.8    60    1.0    26     3.7   873.6    0.00 
 146    3:10   0.00   42.4    65    0.4    37     1.5   873.6    0.00 
 146    3:20   0.00   41.7    66    0.9    42     1.2   873.6    0.00 
 146    3:30   0.00   40.5    68    1.2    50     2.3   873.7    0.00 
 146    3:40   0.00   40.2    70    1.5    28     2.6   873.7    0.00 
 146    3:50   0.00   40.1    70    0.9   302     1.9   873.8    0.00 
 146    4:00   0.00   39.7    71    0.6   317     1.5   873.7    0.00 
 146    4:10   0.00   38.9    72    0.4   259     1.2   873.5    0.00 
 146    4:20   0.00   38.7    72    1.2    17     2.0   873.5    0.00 
 146    4:30   0.00   38.2    72    1.4   302     2.3   873.7    0.00 
 146    4:40   0.00   38.2    72    0.0   314     0.7   873.8    0.00 
 146    4:50   0.01   38.1    70    0.4   332     1.6   873.9    0.00 
 146    5:00   0.01   38.2    69    0.4   261     2.0   873.9    0.00 
 146    5:10   0.02   38.6    68    1.5   325     2.9   874.1    0.00 
 146    5:20   0.07   39.8    66    1.1   328     2.0   874.1    0.00 
 146    5:30   0.10   43.5    58    0.0     0     0.0   874.1    0.00 
 146    5:40   0.13   48.5    48    1.1   324     2.3   874.1    0.00 
 146    5:50   0.16   53.5    39    1.1   328     2.3   874.2    0.00 
 146    6:00   0.20   54.9    38    1.6   329     2.4   874.2    0.00 
 146    6:10   0.23   56.8    35    1.6   329     2.4   874.3    0.00 
 146    6:20   0.27   57.2    33    1.1   304     2.7   874.4    0.00 
 146    6:30   0.30   59.2    31    0.9   108     2.1   874.3    0.00 
 146    6:40   0.34   58.1    32    1.7   116     2.8   874.3    0.00 
 146    6:50   0.38   59.0    30    1.8    46     3.0   874.3    0.00 
 146    7:00   0.41   60.2    29    1.2     6     4.2   874.3    0.00 
 146    7:10   0.45   59.5    30    3.2   142     6.5   874.2    0.00 
 146    7:20   0.48   59.2    30    3.8   140     7.1   874.2    0.00 
 146    7:30   0.52   59.7    30    3.6   142     8.0   874.1    0.00 
 146    7:40   0.56   62.2    28    2.3   126     5.0   874.1    0.00 
 146    7:50   0.59   59.7    30    4.2   126     7.8   874.2    0.00 
 146    8:00   0.62   60.7    30    2.2   177     5.4   874.3    0.00 
 146    8:10   0.66   61.4    29    2.7   130     6.1   874.3    0.00 
 146    8:20   0.69   61.3    29    3.6   121     8.6   874.5    0.00 
 146    8:30   0.72   60.6    29    4.1    35     6.6   874.6    0.00 
 146    8:40   0.75   61.7    29    4.0   149     8.4   874.6    0.00 
 146    8:50   0.78   62.3    28    3.4   204     8.4   874.6    0.00 
 146    9:00   0.80   61.2    29    3.7   228     7.4   874.5    0.00 
 146    9:10   0.83   62.0    27    3.6   245     8.7   874.5    0.00 
 146    9:20   0.85   61.7    27    4.8   243     8.3   874.6    0.00 
 146    9:30   0.88   62.6    27    4.0   200    10.7   874.7    0.00 
 146    9:40   0.89   64.0    25    4.0   189    10.7   874.8    0.00 
 146    9:50   0.92   64.0    26    6.7   148    12.1   874.9    0.00 
 146   10:00   0.95   63.7    27    6.3   143    10.6   875.0    0.00 
 146   10:10   1.00   63.6    27    4.8   227     9.9   875.0    0.00 
 146   10:20   1.02   64.8    28    5.5   178    14.1   875.1    0.00 
 146   10:30   0.72   64.0    29    6.0   189    12.5   875.1    0.00 
 146   10:40   1.07   65.0    28    4.6   171    11.9   875.2    0.00 
 146   10:50   1.04   65.6    27    6.3   153    12.9   875.2    0.00 
 146   11:00   1.03   64.0    28    7.7   211    15.1   875.2    0.00 
 146   11:10   1.03   63.0    30    6.0   203    15.9   875.1    0.00 
 146   11:20   1.03   64.7    28    6.7   144    15.9   875.0    0.00 
 146   11:30   1.04   65.8    27    7.8   181    14.7   874.9    0.00 
 146   11:40   1.04   64.7    28    6.5   212    13.4   874.9    0.00 
 146   11:50   1.04   64.8    28    6.6   214    15.3   874.8    0.00 
 146   12:00   1.02   63.9    29    7.1   214    12.3   874.8    0.00 
 146   12:10   1.03   65.2    27    5.1   180    14.5   874.7    0.00 
 146   12:20   1.03   66.1    26    7.3   203    16.4   874.8    0.00 
 146   12:30   1.03   65.4    27    8.6   219    15.0   874.8    0.00 
 146   12:40   1.02   64.5    28    8.8   236    18.7   874.7    0.00 
 146   12:50   1.02   64.9    28    9.0   221    21.0   874.6    0.00 
 146   13:00   1.02   64.0    29    9.8   204    22.1   874.6    0.00 
 146   13:10   1.00   63.7    28   10.7   213    19.5   874.6    0.00 
 146   13:20   0.77   63.6    28    9.5   226    15.3   874.6    0.00 
 146   13:30   0.30   60.7    30   11.5   210    20.4   874.7    0.00 
 146   13:40   0.26   59.6    31   10.5   214    17.6   874.6    0.00 
 146   13:50   0.24   59.3    31    9.8   208    18.4   874.4    0.00 
 146   14:00   0.21   59.5    30    8.2   217    16.9   874.3    0.00 
 146   14:10   0.21   59.5    31    8.5   215    15.7   874.2    0.00 
 146   14:20   0.24   59.7    32    7.8   211    16.0   874.1    0.00 
 146   14:30   0.27   60.2    31    7.1   243    11.5   874.0    0.00 
 146   14:40   0.28   61.1    29    6.2   241    11.0   873.8    0.00 
 146   14:50   0.32   61.3    28    8.0   237    13.7   873.8    0.00 
 146   15:00   0.43   61.5    27    6.6   240    12.6   873.8    0.00 
 146   15:10   0.68   63.2    26    6.0   250    11.2   873.8    0.00 
 146   15:20   0.75   65.7    25    5.4   254    10.7   873.6    0.00 
 146   15:30   0.66   66.1    24    5.8   222    11.2   873.7    0.00 
 146   15:40   0.60   65.9    23    5.4   236    10.2   873.8    0.00 
 146   15:50   0.59   65.2    23    7.6   213    15.4   873.8    0.00 
 146   16:00   0.57   63.9    27    8.5   216    15.7   873.9    0.00 
 146   16:10   0.22   62.6    31    8.7   209    16.9   873.8    0.00 
 146   16:20   0.12   59.5    38   10.8   217    17.0   873.8    0.00 
 146   16:30   0.12   59.5    36    6.0   121    13.1   874.0    0.00 
 146   16:40   0.12   60.0    32    5.2    99    11.2   874.1    0.00 
 146   16:50   0.16   59.5    32    4.9   110     9.2   874.0    0.00 
 146   17:00   0.21   60.5    32    6.0   126    11.0   874.0    0.00 
 146   17:10   0.19   60.4    37    5.0   150     9.5   874.1    0.00 
 146   17:20   0.21   60.7    38    2.5   151     8.3   874.0    0.00 
 146   17:30   0.28   61.2    37    7.5   139    11.8   874.0    0.00 
 146   17:40   0.20   61.2    37    5.3   145     9.7   874.1    0.00 
 146   17:50   0.16   61.3    37    4.2   192     7.7   874.1    0.00 
 146   18:00   0.12   60.4    38    4.3   199     8.1   874.1    0.00 
 146   18:10   0.10   58.7    41    5.1   207     8.9   874.1    0.00 
 146   18:20   0.07   58.5    42    5.4   195     9.7   874.1    0.00 
 146   18:30   0.02   56.6    45    5.9   198     9.3   874.1    0.00 
 146   18:40   0.01   55.5    47    5.8   205    10.3   874.2    0.00 
 146   18:50   0.01   55.1    48    5.6   203     9.3   874.2    0.00 
 146   19:00   0.00   54.6    49    6.0   206     8.6   874.1    0.00 
 146   19:10   0.00   54.3    49    5.5   204     8.9   874.1    0.00 
 146   19:20   0.00   53.7    50    4.7   179     7.9   874.1    0.00 
 146   19:30   0.00   53.1    52    5.2   174     8.5   874.2    0.00 
 146   19:40   0.00   52.5    53    5.9   180     9.3   874.2    0.00 
 146   19:50   0.00   52.4    53    6.1   187     9.8   874.3    0.00 
 146   20:00   0.00   52.1    54    5.6   194     8.4   874.4    0.00 
 146   20:10   0.00   51.9    55    6.7   191    10.1   874.5    0.00 
 146   20:20   0.00   51.8    55    6.6   198     9.6   874.6    0.00 
 146   20:30   0.00   51.4    56    5.7   193    10.0   874.6    0.00 
 146   20:40   0.00   51.0    57    6.7   177     9.2   874.6    0.00 
 146   20:50   0.00   50.6    58    6.1   174     9.6   874.6    0.00 
 146   21:00   0.00   50.5    58    6.4   178     9.4   874.7    0.00 
 146   21:10   0.00   50.2    58    5.2   166     7.3   874.7    0.00 
 146   21:20   0.00   50.0    59    4.4   185     6.6   874.7    0.00 
 146   21:30   0.00   50.0    59    3.2   198     5.9   874.8    0.00 
 146   21:40   0.00   50.1    57    2.9   226     5.1   874.8    0.00 
 146   21:50   0.00   50.4    57    3.1   230     7.2   874.9    0.00 
 146   22:00   0.00   49.7    57    2.3   278     4.2   874.9    0.00 
 146   22:10   0.00   50.3    54    4.2   350    10.2   874.8    0.00 
 146   22:20   0.00   51.7    49    4.6   331     8.4   874.7    0.00 
 146   22:30   0.00   52.4    47    2.8   324     6.8   874.7    0.00 
 146   22:40   0.00   50.8    49    1.5   339     3.1   874.7    0.00 
 146   22:50   0.00   50.6    49    1.9   100     3.9   874.6    0.00 
 146   23:00   0.00   51.0    49    2.8   168     4.5   874.5    0.00 

Return to Burns Pinion Ridge Reserve graphs page.


Western Regional Climate Center,wrcc@dri.edu